sensor_id;sensor_type;location;lat;lon;timestamp;P1;durP1;ratioP1;P2;durP2;ratioP2
14907;SDS011;7545;52.092;7.006;2022-11-04T00:01:21;4.18;;;1.80;;
14907;SDS011;7545;52.092;7.006;2022-11-04T00:03:47;3.80;;;1.70;;
14907;SDS011;7545;52.092;7.006;2022-11-04T00:06:13;2.08;;;1.88;;
14907;SDS011;7545;52.092;7.006;2022-11-04T00:08:39;1.50;;;1.38;;
14907;SDS011;7545;52.092;7.006;2022-11-04T00:11:04;2.08;;;1.23;;
14907;SDS011;7545;52.092;7.006;2022-11-04T00:13:48;1.98;;;1.30;;
14907;SDS011;7545;52.092;7.006;2022-11-04T00:16:14;1.63;;;1.20;;
14907;SDS011;7545;52.092;7.006;2022-11-04T00:18:59;1.45;;;1.10;;
14907;SDS011;7545;52.092;7.006;2022-11-04T00:21:25;1.48;;;1.25;;
14907;SDS011;7545;52.092;7.006;2022-11-04T00:24:10;2.42;;;1.08;;
14907;SDS011;7545;52.092;7.006;2022-11-04T00:26:55;3.25;;;1.60;;
14907;SDS011;7545;52.092;7.006;2022-11-04T00:30:00;2.70;;;1.27;;
14907;SDS011;7545;52.092;7.006;2022-11-04T00:32:26;1.73;;;1.30;;
14907;SDS011;7545;52.092;7.006;2022-11-04T00:35:10;1.60;;;1.13;;
14907;SDS011;7545;52.092;7.006;2022-11-04T00:37:37;2.38;;;1.25;;
14907;SDS011;7545;52.092;7.006;2022-11-04T00:40:04;1.58;;;1.30;;
14907;SDS011;7545;52.092;7.006;2022-11-04T00:42:31;1.20;;;1.10;;
14907;SDS011;7545;52.092;7.006;2022-11-04T00:44:56;1.83;;;1.30;;
14907;SDS011;7545;52.092;7.006;2022-11-04T00:47:22;2.97;;;1.75;;
14907;SDS011;7545;52.092;7.006;2022-11-04T00:49:48;1.60;;;1.50;;
14907;SDS011;7545;52.092;7.006;2022-11-04T00:52:13;2.10;;;1.90;;
14907;SDS011;7545;52.092;7.006;2022-11-04T00:54:39;2.00;;;1.80;;
14907;SDS011;7545;52.092;7.006;2022-11-04T00:57:04;3.10;;;2.35;;
14907;SDS011;7545;52.092;7.006;2022-11-04T00:59:36;4.07;;;2.30;;
14907;SDS011;7545;52.092;7.006;2022-11-04T01:02:03;3.45;;;2.80;;
14907;SDS011;7545;52.092;7.006;2022-11-04T01:04:29;4.47;;;3.13;;
14907;SDS011;7545;52.092;7.006;2022-11-04T01:06:55;5.78;;;3.22;;
14907;SDS011;7545;52.092;7.006;2022-11-04T01:09:20;3.95;;;2.90;;
14907;SDS011;7545;52.092;7.006;2022-11-04T01:11:46;3.95;;;3.20;;
14907;SDS011;7545;52.092;7.006;2022-11-04T01:14:11;3.72;;;3.35;;
14907;SDS011;7545;52.092;7.006;2022-11-04T01:16:37;3.92;;;3.40;;
14907;SDS011;7545;52.092;7.006;2022-11-04T01:19:03;3.90;;;3.53;;
14907;SDS011;7545;52.092;7.006;2022-11-04T01:21:29;6.32;;;3.92;;
14907;SDS011;7545;52.092;7.006;2022-11-04T01:23:55;4.40;;;4.00;;
14907;SDS011;7545;52.092;7.006;2022-11-04T01:26:21;3.88;;;3.55;;
14907;SDS011;7545;52.092;7.006;2022-11-04T01:28:48;4.72;;;3.47;;
14907;SDS011;7545;52.092;7.006;2022-11-04T01:31:16;4.80;;;3.72;;
14907;SDS011;7545;52.092;7.006;2022-11-04T01:33:45;3.70;;;3.40;;
14907;SDS011;7545;52.092;7.006;2022-11-04T01:36:11;5.07;;;3.58;;
14907;SDS011;7545;52.092;7.006;2022-11-04T01:38:37;4.22;;;3.80;;
14907;SDS011;7545;52.092;7.006;2022-11-04T01:41:04;3.97;;;3.47;;
14907;SDS011;7545;52.092;7.006;2022-11-04T01:43:51;3.40;;;3.10;;
14907;SDS011;7545;52.092;7.006;2022-11-04T01:49:07;3.53;;;3.20;;
14907;SDS011;7545;52.092;7.006;2022-11-04T01:51:57;3.25;;;2.78;;
14907;SDS011;7545;52.092;7.006;2022-11-04T01:54:26;3.70;;;3.10;;
14907;SDS011;7545;52.092;7.006;2022-11-04T01:56:53;3.22;;;2.92;;
14907;SDS011;7545;52.092;7.006;2022-11-04T01:59:22;4.10;;;2.80;;
14907;SDS011;7545;52.092;7.006;2022-11-04T02:01:52;3.10;;;2.80;;
14907;SDS011;7545;52.092;7.006;2022-11-04T02:04:18;3.67;;;2.67;;
14907;SDS011;7545;52.092;7.006;2022-11-04T02:06:54;3.15;;;2.85;;
14907;SDS011;7545;52.092;7.006;2022-11-04T02:09:22;3.00;;;2.78;;
14907;SDS011;7545;52.092;7.006;2022-11-04T02:11:49;3.85;;;3.40;;
14907;SDS011;7545;52.092;7.006;2022-11-04T02:14:33;4.00;;;2.83;;
14907;SDS011;7545;52.092;7.006;2022-11-04T02:17:04;3.80;;;3.00;;
14907;SDS011;7545;52.092;7.006;2022-11-04T02:26:33;3.45;;;3.13;;
14907;SDS011;7545;52.092;7.006;2022-11-04T02:31:28;3.65;;;3.00;;
14907;SDS011;7545;52.092;7.006;2022-11-04T02:36:51;2.95;;;2.72;;
14907;SDS011;7545;52.092;7.006;2022-11-04T02:41:55;2.92;;;2.35;;
14907;SDS011;7545;52.092;7.006;2022-11-04T02:44:34;3.13;;;2.25;;
14907;SDS011;7545;52.092;7.006;2022-11-04T02:47:14;2.50;;;2.30;;
14907;SDS011;7545;52.092;7.006;2022-11-04T02:49:45;2.72;;;2.50;;
14907;SDS011;7545;52.092;7.006;2022-11-04T02:53:02;3.05;;;2.75;;
14907;SDS011;7545;52.092;7.006;2022-11-04T02:55:19;2.72;;;2.50;;
14907;SDS011;7545;52.092;7.006;2022-11-04T02:57:55;3.20;;;2.72;;
14907;SDS011;7545;52.092;7.006;2022-11-04T03:00:24;4.60;;;2.88;;
14907;SDS011;7545;52.092;7.006;2022-11-04T03:02:52;3.15;;;2.83;;
14907;SDS011;7545;52.092;7.006;2022-11-04T03:05:24;3.17;;;2.60;;
14907;SDS011;7545;52.092;7.006;2022-11-04T03:07:52;3.78;;;3.45;;
14907;SDS011;7545;52.092;7.006;2022-11-04T03:10:30;5.57;;;4.50;;
14907;SDS011;7545;52.092;7.006;2022-11-04T03:15:45;6.32;;;4.95;;
14907;SDS011;7545;52.092;7.006;2022-11-04T03:18:25;6.82;;;5.38;;
14907;SDS011;7545;52.092;7.006;2022-11-04T03:20:58;7.57;;;5.40;;
14907;SDS011;7545;52.092;7.006;2022-11-04T03:23:26;6.68;;;5.93;;
14907;SDS011;7545;52.092;7.006;2022-11-04T03:25:54;7.30;;;6.15;;
14907;SDS011;7545;52.092;7.006;2022-11-04T03:31:28;7.07;;;5.57;;
14907;SDS011;7545;52.092;7.006;2022-11-04T03:34:03;6.35;;;5.65;;
14907;SDS011;7545;52.092;7.006;2022-11-04T03:36:28;7.32;;;6.28;;
14907;SDS011;7545;52.092;7.006;2022-11-04T03:38:54;8.65;;;6.32;;
14907;SDS011;7545;52.092;7.006;2022-11-04T03:44:15;6.97;;;5.97;;
14907;SDS011;7545;52.092;7.006;2022-11-04T03:46:41;8.88;;;6.40;;
14907;SDS011;7545;52.092;7.006;2022-11-04T03:49:06;6.75;;;5.88;;
14907;SDS011;7545;52.092;7.006;2022-11-04T03:51:34;6.95;;;5.47;;
14907;SDS011;7545;52.092;7.006;2022-11-04T03:54:00;6.88;;;5.97;;
14907;SDS011;7545;52.092;7.006;2022-11-04T03:59:01;10.10;;;6.25;;
14907;SDS011;7545;52.092;7.006;2022-11-04T04:04:15;9.05;;;7.13;;
14907;SDS011;7545;52.092;7.006;2022-11-04T04:06:50;7.60;;;6.45;;
14907;SDS011;7545;52.092;7.006;2022-11-04T04:09:34;8.25;;;6.80;;
14907;SDS011;7545;52.092;7.006;2022-11-04T04:14:42;7.50;;;6.32;;
14907;SDS011;7545;52.092;7.006;2022-11-04T04:17:23;8.90;;;6.82;;
14907;SDS011;7545;52.092;7.006;2022-11-04T04:19:58;10.93;;;7.30;;
14907;SDS011;7545;52.092;7.006;2022-11-04T04:22:28;8.73;;;6.43;;
14907;SDS011;7545;52.092;7.006;2022-11-04T04:24:58;10.23;;;6.50;;
14907;SDS011;7545;52.092;7.006;2022-11-04T04:27:46;8.20;;;6.50;;
14907;SDS011;7545;52.092;7.006;2022-11-04T04:30:15;9.02;;;6.38;;
14907;SDS011;7545;52.092;7.006;2022-11-04T04:32:48;9.32;;;6.70;;
14907;SDS011;7545;52.092;7.006;2022-11-04T04:35:24;8.82;;;6.78;;
14907;SDS011;7545;52.092;7.006;2022-11-04T04:38:17;7.40;;;6.13;;
14907;SDS011;7545;52.092;7.006;2022-11-04T04:41:12;10.35;;;6.85;;
14907;SDS011;7545;52.092;7.006;2022-11-04T04:44:24;10.07;;;5.85;;
14907;SDS011;7545;52.092;7.006;2022-11-04T04:47:11;8.27;;;6.40;;
14907;SDS011;7545;52.092;7.006;2022-11-04T04:49:50;10.77;;;6.32;;
14907;SDS011;7545;52.092;7.006;2022-11-04T04:52:17;8.05;;;6.10;;
14907;SDS011;7545;52.092;7.006;2022-11-04T04:54:44;9.07;;;6.32;;
14907;SDS011;7545;52.092;7.006;2022-11-04T04:57:09;6.93;;;5.40;;
14907;SDS011;7545;52.092;7.006;2022-11-04T04:59:35;10.30;;;6.82;;
14907;SDS011;7545;52.092;7.006;2022-11-04T05:02:01;7.72;;;6.20;;
14907;SDS011;7545;52.092;7.006;2022-11-04T05:04:27;9.90;;;6.50;;
14907;SDS011;7545;52.092;7.006;2022-11-04T05:06:53;8.55;;;5.97;;
14907;SDS011;7545;52.092;7.006;2022-11-04T05:09:19;9.98;;;6.13;;
14907;SDS011;7545;52.092;7.006;2022-11-04T05:11:44;7.95;;;6.63;;
14907;SDS011;7545;52.092;7.006;2022-11-04T05:14:10;7.82;;;5.70;;
14907;SDS011;7545;52.092;7.006;2022-11-04T05:16:36;12.27;;;6.47;;
14907;SDS011;7545;52.092;7.006;2022-11-04T05:19:01;10.88;;;7.32;;
14907;SDS011;7545;52.092;7.006;2022-11-04T05:21:27;8.00;;;5.47;;
14907;SDS011;7545;52.092;7.006;2022-11-04T05:23:52;9.18;;;5.47;;
14907;SDS011;7545;52.092;7.006;2022-11-04T05:26:18;7.13;;;6.20;;
14907;SDS011;7545;52.092;7.006;2022-11-04T05:28:44;8.23;;;5.97;;
14907;SDS011;7545;52.092;7.006;2022-11-04T05:31:09;7.78;;;6.35;;
14907;SDS011;7545;52.092;7.006;2022-11-04T05:33:35;6.80;;;6.05;;
14907;SDS011;7545;52.092;7.006;2022-11-04T05:36:07;8.35;;;6.35;;
14907;SDS011;7545;52.092;7.006;2022-11-04T05:38:35;9.10;;;6.35;;
14907;SDS011;7545;52.092;7.006;2022-11-04T05:41:00;7.40;;;6.50;;
14907;SDS011;7545;52.092;7.006;2022-11-04T05:43:26;10.32;;;6.47;;
14907;SDS011;7545;52.092;7.006;2022-11-04T05:45:52;7.53;;;6.45;;
14907;SDS011;7545;52.092;7.006;2022-11-04T05:48:17;9.60;;;7.60;;
14907;SDS011;7545;52.092;7.006;2022-11-04T05:50:43;8.52;;;5.80;;
14907;SDS011;7545;52.092;7.006;2022-11-04T05:53:08;9.60;;;5.95;;
14907;SDS011;7545;52.092;7.006;2022-11-04T05:55:34;8.70;;;6.55;;
14907;SDS011;7545;52.092;7.006;2022-11-04T05:58:00;10.95;;;6.68;;
14907;SDS011;7545;52.092;7.006;2022-11-04T06:00:26;8.15;;;5.75;;
14907;SDS011;7545;52.092;7.006;2022-11-04T06:02:53;11.60;;;6.40;;
14907;SDS011;7545;52.092;7.006;2022-11-04T06:05:21;8.23;;;5.50;;
14907;SDS011;7545;52.092;7.006;2022-11-04T06:07:47;8.65;;;5.68;;
14907;SDS011;7545;52.092;7.006;2022-11-04T06:10:12;10.35;;;5.50;;
14907;SDS011;7545;52.092;7.006;2022-11-04T06:12:38;10.02;;;5.82;;
14907;SDS011;7545;52.092;7.006;2022-11-04T06:15:04;8.13;;;5.30;;
14907;SDS011;7545;52.092;7.006;2022-11-04T06:17:30;6.55;;;5.15;;
14907;SDS011;7545;52.092;7.006;2022-11-04T06:19:55;11.43;;;7.35;;
14907;SDS011;7545;52.092;7.006;2022-11-04T06:22:21;7.60;;;4.55;;
14907;SDS011;7545;52.092;7.006;2022-11-04T06:24:46;7.70;;;5.38;;
14907;SDS011;7545;52.092;7.006;2022-11-04T06:27:12;11.80;;;5.75;;
14907;SDS011;7545;52.092;7.006;2022-11-04T06:29:38;13.10;;;5.68;;
14907;SDS011;7545;52.092;7.006;2022-11-04T06:32:08;11.60;;;4.80;;
14907;SDS011;7545;52.092;7.006;2022-11-04T06:34:38;7.88;;;4.90;;
14907;SDS011;7545;52.092;7.006;2022-11-04T06:37:04;7.85;;;4.78;;
14907;SDS011;7545;52.092;7.006;2022-11-04T06:39:30;6.43;;;4.30;;
14907;SDS011;7545;52.092;7.006;2022-11-04T06:41:56;9.57;;;4.55;;
14907;SDS011;7545;52.092;7.006;2022-11-04T06:44:21;10.18;;;4.57;;
14907;SDS011;7545;52.092;7.006;2022-11-04T06:46:48;5.68;;;3.88;;
14907;SDS011;7545;52.092;7.006;2022-11-04T06:49:15;9.05;;;5.07;;
14907;SDS011;7545;52.092;7.006;2022-11-04T06:51:42;7.75;;;4.03;;
14907;SDS011;7545;52.092;7.006;2022-11-04T06:54:08;7.82;;;4.00;;
14907;SDS011;7545;52.092;7.006;2022-11-04T06:56:34;7.78;;;3.97;;
14907;SDS011;7545;52.092;7.006;2022-11-04T06:59:00;10.52;;;3.85;;
14907;SDS011;7545;52.092;7.006;2022-11-04T07:01:26;5.97;;;3.88;;
14907;SDS011;7545;52.092;7.006;2022-11-04T07:03:56;9.73;;;4.20;;
14907;SDS011;7545;52.092;7.006;2022-11-04T07:06:23;9.55;;;3.85;;
14907;SDS011;7545;52.092;7.006;2022-11-04T07:08:50;7.35;;;3.55;;
14907;SDS011;7545;52.092;7.006;2022-11-04T07:11:17;4.43;;;3.42;;
14907;SDS011;7545;52.092;7.006;2022-11-04T07:13:45;4.10;;;3.40;;
14907;SDS011;7545;52.092;7.006;2022-11-04T07:16:12;7.50;;;3.13;;
14907;SDS011;7545;52.092;7.006;2022-11-04T07:18:37;5.45;;;3.17;;
14907;SDS011;7545;52.092;7.006;2022-11-04T07:21:03;6.28;;;3.30;;
14907;SDS011;7545;52.092;7.006;2022-11-04T07:23:29;5.70;;;3.00;;
14907;SDS011;7545;52.092;7.006;2022-11-04T07:25:58;9.32;;;3.55;;
14907;SDS011;7545;52.092;7.006;2022-11-04T07:28:25;4.45;;;3.03;;
14907;SDS011;7545;52.092;7.006;2022-11-04T07:30:50;7.72;;;3.00;;
14907;SDS011;7545;52.092;7.006;2022-11-04T07:33:18;4.78;;;2.70;;
14907;SDS011;7545;52.092;7.006;2022-11-04T07:35:44;6.95;;;2.70;;
14907;SDS011;7545;52.092;7.006;2022-11-04T07:38:09;3.85;;;1.92;;
14907;SDS011;7545;52.092;7.006;2022-11-04T07:40:35;7.00;;;2.85;;
14907;SDS011;7545;52.092;7.006;2022-11-04T07:43:01;7.90;;;2.65;;
14907;SDS011;7545;52.092;7.006;2022-11-04T07:45:27;6.28;;;2.50;;
14907;SDS011;7545;52.092;7.006;2022-11-04T07:47:52;7.72;;;2.95;;
14907;SDS011;7545;52.092;7.006;2022-11-04T07:50:18;4.95;;;1.92;;
14907;SDS011;7545;52.092;7.006;2022-11-04T07:52:44;7.32;;;2.38;;
14907;SDS011;7545;52.092;7.006;2022-11-04T07:55:09;3.72;;;2.25;;
14907;SDS011;7545;52.092;7.006;2022-11-04T07:57:37;7.88;;;2.58;;
14907;SDS011;7545;52.092;7.006;2022-11-04T08:00:03;5.15;;;1.70;;
14907;SDS011;7545;52.092;7.006;2022-11-04T08:02:30;6.28;;;1.85;;
14907;SDS011;7545;52.092;7.006;2022-11-04T08:04:56;4.65;;;2.17;;
14907;SDS011;7545;52.092;7.006;2022-11-04T08:07:21;6.00;;;2.33;;
14907;SDS011;7545;52.092;7.006;2022-11-04T08:09:47;7.50;;;2.53;;
14907;SDS011;7545;52.092;7.006;2022-11-04T08:12:13;3.67;;;1.77;;
14907;SDS011;7545;52.092;7.006;2022-11-04T08:14:38;9.35;;;2.58;;
14907;SDS011;7545;52.092;7.006;2022-11-04T08:17:04;7.32;;;2.33;;
14907;SDS011;7545;52.092;7.006;2022-11-04T08:19:29;8.48;;;2.22;;
14907;SDS011;7545;52.092;7.006;2022-11-04T08:21:55;4.82;;;2.22;;
14907;SDS011;7545;52.092;7.006;2022-11-04T08:24:21;4.70;;;2.05;;
14907;SDS011;7545;52.092;7.006;2022-11-04T08:26:46;5.90;;;2.30;;
14907;SDS011;7545;52.092;7.006;2022-11-04T08:29:12;7.53;;;2.17;;
14907;SDS011;7545;52.092;7.006;2022-11-04T08:31:38;4.18;;;1.92;;
14907;SDS011;7545;52.092;7.006;2022-11-04T08:34:04;2.83;;;1.77;;
14907;SDS011;7545;52.092;7.006;2022-11-04T08:36:33;7.28;;;2.38;;
14907;SDS011;7545;52.092;7.006;2022-11-04T08:39:04;5.05;;;2.10;;
14907;SDS011;7545;52.092;7.006;2022-11-04T08:41:32;7.32;;;3.47;;
14907;SDS011;7545;52.092;7.006;2022-11-04T08:43:58;5.75;;;2.05;;
14907;SDS011;7545;52.092;7.006;2022-11-04T08:46:28;5.05;;;2.00;;
14907;SDS011;7545;52.092;7.006;2022-11-04T08:48:57;3.00;;;1.77;;
14907;SDS011;7545;52.092;7.006;2022-11-04T08:51:23;5.43;;;3.15;;
14907;SDS011;7545;52.092;7.006;2022-11-04T08:53:50;4.43;;;1.75;;
14907;SDS011;7545;52.092;7.006;2022-11-04T08:56:18;4.80;;;2.00;;
14907;SDS011;7545;52.092;7.006;2022-11-04T08:58:47;7.18;;;2.40;;
14907;SDS011;7545;52.092;7.006;2022-11-04T09:01:13;4.47;;;2.00;;
14907;SDS011;7545;52.092;7.006;2022-11-04T09:03:40;9.68;;;2.20;;
14907;SDS011;7545;52.092;7.006;2022-11-04T09:06:10;4.78;;;2.03;;
14907;SDS011;7545;52.092;7.006;2022-11-04T09:08:39;6.28;;;1.95;;
14907;SDS011;7545;52.092;7.006;2022-11-04T09:11:05;9.35;;;2.25;;
14907;SDS011;7545;52.092;7.006;2022-11-04T09:13:33;7.70;;;2.42;;
14907;SDS011;7545;52.092;7.006;2022-11-04T09:15:59;7.45;;;2.03;;
14907;SDS011;7545;52.092;7.006;2022-11-04T09:18:25;5.43;;;2.45;;
14907;SDS011;7545;52.092;7.006;2022-11-04T09:20:50;4.88;;;2.28;;
14907;SDS011;7545;52.092;7.006;2022-11-04T09:23:16;7.55;;;3.67;;
14907;SDS011;7545;52.092;7.006;2022-11-04T09:25:42;3.83;;;1.98;;
14907;SDS011;7545;52.092;7.006;2022-11-04T09:28:08;3.83;;;1.98;;
14907;SDS011;7545;52.092;7.006;2022-11-04T09:30:35;5.30;;;2.28;;
14907;SDS011;7545;52.092;7.006;2022-11-04T09:33:00;6.50;;;2.53;;
14907;SDS011;7545;52.092;7.006;2022-11-04T09:35:26;6.22;;;2.72;;
14907;SDS011;7545;52.092;7.006;2022-11-04T09:37:52;4.47;;;2.50;;
14907;SDS011;7545;52.092;7.006;2022-11-04T09:40:18;5.68;;;2.08;;
14907;SDS011;7545;52.092;7.006;2022-11-04T09:45:39;6.20;;;2.13;;
14907;SDS011;7545;52.092;7.006;2022-11-04T09:48:07;6.22;;;2.00;;
14907;SDS011;7545;52.092;7.006;2022-11-04T09:50:44;4.82;;;1.90;;
14907;SDS011;7545;52.092;7.006;2022-11-04T09:53:14;4.63;;;2.10;;
14907;SDS011;7545;52.092;7.006;2022-11-04T09:55:51;4.32;;;2.15;;
14907;SDS011;7545;52.092;7.006;2022-11-04T09:58:21;6.90;;;2.75;;
14907;SDS011;7545;52.092;7.006;2022-11-04T10:00:59;4.97;;;2.42;;
14907;SDS011;7545;52.092;7.006;2022-11-04T10:06:43;4.30;;;1.90;;
14907;SDS011;7545;52.092;7.006;2022-11-04T10:09:21;7.55;;;2.40;;
14907;SDS011;7545;52.092;7.006;2022-11-04T10:15:37;2.65;;;2.22;;
14907;SDS011;7545;52.092;7.006;2022-11-04T10:21:20;4.25;;;1.95;;
14907;SDS011;7545;52.092;7.006;2022-11-04T10:26:53;6.93;;;2.58;;
14907;SDS011;7545;52.092;7.006;2022-11-04T10:29:31;5.65;;;2.25;;
14907;SDS011;7545;52.092;7.006;2022-11-04T10:32:02;7.15;;;2.92;;
14907;SDS011;7545;52.092;7.006;2022-11-04T10:34:39;5.55;;;2.55;;
14907;SDS011;7545;52.092;7.006;2022-11-04T10:37:09;7.57;;;3.15;;
14907;SDS011;7545;52.092;7.006;2022-11-04T10:39:38;9.15;;;3.15;;
14907;SDS011;7545;52.092;7.006;2022-11-04T10:42:11;4.38;;;2.80;;
14907;SDS011;7545;52.092;7.006;2022-11-04T10:44:38;6.75;;;2.78;;
14907;SDS011;7545;52.092;7.006;2022-11-04T10:52:37;6.38;;;2.78;;
14907;SDS011;7545;52.092;7.006;2022-11-04T10:55:14;6.75;;;2.40;;
14907;SDS011;7545;52.092;7.006;2022-11-04T10:58:20;9.32;;;3.30;;
14907;SDS011;7545;52.092;7.006;2022-11-04T11:00:48;6.43;;;2.72;;
14907;SDS011;7545;52.092;7.006;2022-11-04T11:03:30;4.90;;;2.90;;
14907;SDS011;7545;52.092;7.006;2022-11-04T11:06:31;7.07;;;3.35;;
14907;SDS011;7545;52.092;7.006;2022-11-04T11:08:51;9.45;;;4.88;;
14907;SDS011;7545;52.092;7.006;2022-11-04T11:11:35;6.78;;;2.90;;
14907;SDS011;7545;52.092;7.006;2022-11-04T11:14:04;4.90;;;2.35;;
14907;SDS011;7545;52.092;7.006;2022-11-04T11:17:36;5.43;;;2.60;;
14907;SDS011;7545;52.092;7.006;2022-11-04T11:19:48;7.13;;;2.75;;
14907;SDS011;7545;52.092;7.006;2022-11-04T11:22:29;5.82;;;2.40;;
14907;SDS011;7545;52.092;7.006;2022-11-04T11:27:52;4.47;;;2.50;;
14907;SDS011;7545;52.092;7.006;2022-11-04T11:32:53;9.85;;;3.03;;
14907;SDS011;7545;52.092;7.006;2022-11-04T11:35:35;3.53;;;2.28;;
14907;SDS011;7545;52.092;7.006;2022-11-04T11:41:19;4.30;;;2.20;;
14907;SDS011;7545;52.092;7.006;2022-11-04T11:43:53;7.20;;;2.50;;
14907;SDS011;7545;52.092;7.006;2022-11-04T11:46:23;3.50;;;2.05;;
14907;SDS011;7545;52.092;7.006;2022-11-04T11:48:53;5.03;;;2.20;;
14907;SDS011;7545;52.092;7.006;2022-11-04T11:51:26;2.95;;;2.00;;
14907;SDS011;7545;52.092;7.006;2022-11-04T11:56:45;4.07;;;1.83;;
14907;SDS011;7545;52.092;7.006;2022-11-04T12:04:33;8.07;;;2.55;;
14907;SDS011;7545;52.092;7.006;2022-11-04T12:07:05;5.95;;;2.55;;
14907;SDS011;7545;52.092;7.006;2022-11-04T12:18:01;6.57;;;3.33;;
14907;SDS011;7545;52.092;7.006;2022-11-04T12:32:19;4.78;;;2.60;;
14907;SDS011;7545;52.092;7.006;2022-11-04T12:40:21;6.35;;;2.95;;
14907;SDS011;7545;52.092;7.006;2022-11-04T12:51:37;4.70;;;2.15;;
14907;SDS011;7545;52.092;7.006;2022-11-04T12:56:41;2.75;;;2.17;;
14907;SDS011;7545;52.092;7.006;2022-11-04T13:02:09;7.10;;;2.63;;
14907;SDS011;7545;52.092;7.006;2022-11-04T13:04:58;6.28;;;2.47;;
14907;SDS011;7545;52.092;7.006;2022-11-04T13:08:19;7.88;;;2.67;;
14907;SDS011;7545;52.092;7.006;2022-11-04T13:10:39;8.23;;;2.83;;
14907;SDS011;7545;52.092;7.006;2022-11-04T13:13:12;8.93;;;2.65;;
14907;SDS011;7545;52.092;7.006;2022-11-04T13:15:51;3.35;;;2.47;;
14907;SDS011;7545;52.092;7.006;2022-11-04T13:18:22;6.85;;;3.15;;
14907;SDS011;7545;52.092;7.006;2022-11-04T13:20:56;6.00;;;2.63;;
14907;SDS011;7545;52.092;7.006;2022-11-04T13:23:44;7.43;;;2.72;;
14907;SDS011;7545;52.092;7.006;2022-11-04T13:26:35;6.47;;;3.45;;
14907;SDS011;7545;52.092;7.006;2022-11-04T13:29:11;6.07;;;3.92;;
14907;SDS011;7545;52.092;7.006;2022-11-04T13:31:58;5.85;;;2.88;;
14907;SDS011;7545;52.092;7.006;2022-11-04T13:34:37;8.18;;;2.83;;
14907;SDS011;7545;52.092;7.006;2022-11-04T13:45:53;6.40;;;2.85;;
14907;SDS011;7545;52.092;7.006;2022-11-04T13:48:24;5.63;;;3.33;;
14907;SDS011;7545;52.092;7.006;2022-11-04T13:53:47;6.75;;;2.70;;
14907;SDS011;7545;52.092;7.006;2022-11-04T13:56:26;4.75;;;2.88;;
14907;SDS011;7545;52.092;7.006;2022-11-04T14:01:47;5.55;;;2.90;;
14907;SDS011;7545;52.092;7.006;2022-11-04T14:07:13;4.97;;;2.28;;
14907;SDS011;7545;52.092;7.006;2022-11-04T14:09:55;7.68;;;3.15;;
14907;SDS011;7545;52.092;7.006;2022-11-04T14:12:25;4.07;;;2.55;;
14907;SDS011;7545;52.092;7.006;2022-11-04T14:14:53;5.38;;;3.05;;
14907;SDS011;7545;52.092;7.006;2022-11-04T14:22:53;5.20;;;2.90;;
14907;SDS011;7545;52.092;7.006;2022-11-04T14:25:23;6.53;;;3.70;;
14907;SDS011;7545;52.092;7.006;2022-11-04T14:28:36;3.40;;;2.75;;
14907;SDS011;7545;52.092;7.006;2022-11-04T14:30:51;5.05;;;3.03;;
14907;SDS011;7545;52.092;7.006;2022-11-04T14:34:15;6.78;;;3.15;;
14907;SDS011;7545;52.092;7.006;2022-11-04T14:38:55;6.72;;;2.88;;
14907;SDS011;7545;52.092;7.006;2022-11-04T14:43:52;8.05;;;3.17;;
14907;SDS011;7545;52.092;7.006;2022-11-04T14:46:30;6.32;;;3.90;;
14907;SDS011;7545;52.092;7.006;2022-11-04T14:48:58;6.72;;;3.53;;
14907;SDS011;7545;52.092;7.006;2022-11-04T14:51:30;6.80;;;4.95;;
14907;SDS011;7545;52.092;7.006;2022-11-04T14:54:01;7.13;;;3.38;;
14907;SDS011;7545;52.092;7.006;2022-11-04T14:56:49;4.57;;;3.35;;
14907;SDS011;7545;52.092;7.006;2022-11-04T14:59:22;5.97;;;4.25;;
14907;SDS011;7545;52.092;7.006;2022-11-04T15:01:51;6.07;;;3.08;;
14907;SDS011;7545;52.092;7.006;2022-11-04T15:09:24;4.68;;;3.42;;
14907;SDS011;7545;52.092;7.006;2022-11-04T15:14:51;8.70;;;3.53;;
14907;SDS011;7545;52.092;7.006;2022-11-04T15:17:18;10.63;;;5.35;;
14907;SDS011;7545;52.092;7.006;2022-11-04T15:19:47;8.30;;;4.88;;
14907;SDS011;7545;52.092;7.006;2022-11-04T15:22:15;5.18;;;4.00;;
14907;SDS011;7545;52.092;7.006;2022-11-04T15:24:41;10.52;;;4.50;;
14907;SDS011;7545;52.092;7.006;2022-11-04T15:27:12;6.78;;;4.05;;
14907;SDS011;7545;52.092;7.006;2022-11-04T15:29:57;7.53;;;3.75;;
14907;SDS011;7545;52.092;7.006;2022-11-04T15:32:24;10.20;;;4.47;;
14907;SDS011;7545;52.092;7.006;2022-11-04T15:34:50;9.60;;;5.32;;
14907;SDS011;7545;52.092;7.006;2022-11-04T15:37:17;12.07;;;6.95;;
14907;SDS011;7545;52.092;7.006;2022-11-04T15:39:46;16.50;;;9.05;;
14907;SDS011;7545;52.092;7.006;2022-11-04T15:42:28;15.57;;;9.65;;
14907;SDS011;7545;52.092;7.006;2022-11-04T15:45:15;12.43;;;8.02;;
14907;SDS011;7545;52.092;7.006;2022-11-04T15:47:47;10.82;;;6.80;;
14907;SDS011;7545;52.092;7.006;2022-11-04T15:50:15;11.65;;;7.35;;
14907;SDS011;7545;52.092;7.006;2022-11-04T15:52:51;8.73;;;6.57;;
14907;SDS011;7545;52.092;7.006;2022-11-04T15:55:22;11.18;;;8.02;;
14907;SDS011;7545;52.092;7.006;2022-11-04T15:57:49;12.80;;;8.52;;
14907;SDS011;7545;52.092;7.006;2022-11-04T16:02:46;12.80;;;8.27;;
14907;SDS011;7545;52.092;7.006;2022-11-04T16:07:47;11.43;;;8.20;;
14907;SDS011;7545;52.092;7.006;2022-11-04T16:13:02;15.80;;;10.07;;
14907;SDS011;7545;52.092;7.006;2022-11-04T16:15:47;18.63;;;12.70;;
14907;SDS011;7545;52.092;7.006;2022-11-04T16:18:36;19.20;;;10.45;;
14907;SDS011;7545;52.092;7.006;2022-11-04T16:21:11;17.30;;;10.55;;
14907;SDS011;7545;52.092;7.006;2022-11-04T16:23:53;20.15;;;10.40;;
14907;SDS011;7545;52.092;7.006;2022-11-04T16:26:23;17.73;;;10.90;;
14907;SDS011;7545;52.092;7.006;2022-11-04T16:29:05;11.57;;;7.70;;
14907;SDS011;7545;52.092;7.006;2022-11-04T16:34:47;15.65;;;8.65;;
14907;SDS011;7545;52.092;7.006;2022-11-04T16:37:14;17.17;;;10.80;;
14907;SDS011;7545;52.092;7.006;2022-11-04T16:39:41;15.95;;;10.45;;
14907;SDS011;7545;52.092;7.006;2022-11-04T16:42:08;19.98;;;12.63;;
14907;SDS011;7545;52.092;7.006;2022-11-04T16:44:38;20.55;;;12.15;;
14907;SDS011;7545;52.092;7.006;2022-11-04T16:47:04;37.90;;;22.52;;
14907;SDS011;7545;52.092;7.006;2022-11-04T16:49:29;35.28;;;22.05;;
14907;SDS011;7545;52.092;7.006;2022-11-04T16:51:59;24.15;;;14.88;;
14907;SDS011;7545;52.092;7.006;2022-11-04T16:54:27;13.38;;;9.80;;
14907;SDS011;7545;52.092;7.006;2022-11-04T16:56:53;17.65;;;11.48;;
14907;SDS011;7545;52.092;7.006;2022-11-04T16:59:19;14.82;;;10.95;;
14907;SDS011;7545;52.092;7.006;2022-11-04T17:01:45;13.82;;;10.88;;
14907;SDS011;7545;52.092;7.006;2022-11-04T17:04:11;14.85;;;11.77;;
14907;SDS011;7545;52.092;7.006;2022-11-04T17:06:37;15.05;;;11.43;;
14907;SDS011;7545;52.092;7.006;2022-11-04T17:09:03;16.77;;;11.63;;
14907;SDS011;7545;52.092;7.006;2022-11-04T17:11:41;15.70;;;11.30;;
14907;SDS011;7545;52.092;7.006;2022-11-04T17:14:07;15.63;;;10.43;;
14907;SDS011;7545;52.092;7.006;2022-11-04T17:16:32;17.02;;;12.30;;
14907;SDS011;7545;52.092;7.006;2022-11-04T17:18:58;14.15;;;11.07;;
14907;SDS011;7545;52.092;7.006;2022-11-04T17:21:23;15.00;;;10.35;;
14907;SDS011;7545;52.092;7.006;2022-11-04T17:23:50;13.18;;;10.32;;
14907;SDS011;7545;52.092;7.006;2022-11-04T17:26:16;17.75;;;10.98;;
14907;SDS011;7545;52.092;7.006;2022-11-04T17:28:42;15.95;;;11.55;;
14907;SDS011;7545;52.092;7.006;2022-11-04T17:31:09;15.48;;;11.57;;
14907;SDS011;7545;52.092;7.006;2022-11-04T17:33:40;20.10;;;14.82;;
14907;SDS011;7545;52.092;7.006;2022-11-04T17:36:05;27.02;;;17.55;;
14907;SDS011;7545;52.092;7.006;2022-11-04T17:38:33;23.05;;;14.40;;
14907;SDS011;7545;52.092;7.006;2022-11-04T17:40:58;25.52;;;16.33;;
14907;SDS011;7545;52.092;7.006;2022-11-04T17:43:43;17.77;;;13.63;;
14907;SDS011;7545;52.092;7.006;2022-11-04T17:46:27;18.50;;;13.02;;
14907;SDS011;7545;52.092;7.006;2022-11-04T17:49:06;20.42;;;14.55;;
14907;SDS011;7545;52.092;7.006;2022-11-04T17:51:35;19.10;;;14.00;;
14907;SDS011;7545;52.092;7.006;2022-11-04T17:54:03;17.45;;;13.63;;
14907;SDS011;7545;52.092;7.006;2022-11-04T17:56:29;17.40;;;12.55;;
14907;SDS011;7545;52.092;7.006;2022-11-04T17:58:57;16.63;;;12.55;;